Current Conditions
Partly Cloudy
Conditions



Pressure
1016.92 (hPa) - 30.03 (inHG)
Visibility

10.0 (km) - 6.2 (miles)
   Temperature
15  °C
59°F
14  °C
Dewpoint
94  %
 Humidity
   Wind Speed
3  km/h
2  kts
2  mph
0.9  m/s
   Wind Direction
Calm
Due North
   Airport Data
LGTS
Location Thessaloniki Macedonia International 85 km (52.83 mi)
Metar :LGTS 210250Z VRB02KT 9999 FEW010 BKN025 15/14 Q1017 NOSIG
Thu 21st November 04:50 am
   Raw Metar Info
Raw METAR is the most common format in the world for the transmission of observational weather data. It is highly standardized through the International Civil Aviation Organization (ICAO), which allows it to be understood throughout most of the world.
   API Info
Data Provided by
https://www.checkwx.com/weather/LGTS
   © Info
CSS/SVG/PHP scripts were developed by weather34.com for use in the weather34 template © 2015-2019

Guide Info provided by Metar-Wikipedia